sensor_id;sensor_type;location;lat;lon;timestamp;P1;durP1;ratioP1;P2;durP2;ratioP2
50932;SDS011;36921;49.006;9.292;2023-05-16T00:00:13;13.52;;;7.20;;
50932;SDS011;36921;49.006;9.292;2023-05-16T00:02:39;11.32;;;6.50;;
50932;SDS011;36921;49.006;9.292;2023-05-16T00:05:05;10.27;;;6.55;;
50932;SDS011;36921;49.006;9.292;2023-05-16T00:07:32;9.30;;;5.95;;
50932;SDS011;36921;49.006;9.292;2023-05-16T00:09:58;11.68;;;5.95;;
50932;SDS011;36921;49.006;9.292;2023-05-16T00:12:24;10.77;;;7.00;;
50932;SDS011;36921;49.006;9.292;2023-05-16T00:14:50;14.57;;;6.53;;
50932;SDS011;36921;49.006;9.292;2023-05-16T00:17:16;10.13;;;6.82;;
50932;SDS011;36921;49.006;9.292;2023-05-16T00:19:41;10.95;;;6.85;;
50932;SDS011;36921;49.006;9.292;2023-05-16T00:22:08;12.70;;;7.38;;
50932;SDS011;36921;49.006;9.292;2023-05-16T00:24:35;10.95;;;6.53;;
50932;SDS011;36921;49.006;9.292;2023-05-16T00:27:00;10.90;;;7.05;;
50932;SDS011;36921;49.006;9.292;2023-05-16T00:29:28;9.48;;;6.85;;
50932;SDS011;36921;49.006;9.292;2023-05-16T00:31:56;12.73;;;7.28;;
50932;SDS011;36921;49.006;9.292;2023-05-16T00:34:21;13.30;;;7.60;;
50932;SDS011;36921;49.006;9.292;2023-05-16T00:36:48;18.10;;;7.35;;
50932;SDS011;36921;49.006;9.292;2023-05-16T00:39:14;11.95;;;7.90;;
50932;SDS011;36921;49.006;9.292;2023-05-16T00:41:39;17.17;;;7.65;;
50932;SDS011;36921;49.006;9.292;2023-05-16T00:44:05;15.80;;;8.20;;
50932;SDS011;36921;49.006;9.292;2023-05-16T00:46:30;10.77;;;7.82;;
50932;SDS011;36921;49.006;9.292;2023-05-16T00:48:56;11.75;;;7.63;;
50932;SDS011;36921;49.006;9.292;2023-05-16T00:51:21;12.70;;;7.38;;
50932;SDS011;36921;49.006;9.292;2023-05-16T00:53:47;12.55;;;7.13;;
50932;SDS011;36921;49.006;9.292;2023-05-16T00:56:12;9.93;;;6.97;;
50932;SDS011;36921;49.006;9.292;2023-05-16T00:58:37;9.93;;;7.10;;
50932;SDS011;36921;49.006;9.292;2023-05-16T01:01:03;11.18;;;7.68;;
50932;SDS011;36921;49.006;9.292;2023-05-16T01:03:28;11.95;;;7.90;;
50932;SDS011;36921;49.006;9.292;2023-05-16T01:05:54;12.70;;;8.20;;
50932;SDS011;36921;49.006;9.292;2023-05-16T01:08:20;14.20;;;9.25;;
50932;SDS011;36921;49.006;9.292;2023-05-16T01:10:56;13.23;;;7.97;;
50932;SDS011;36921;49.006;9.292;2023-05-16T01:13:30;13.98;;;7.70;;
50932;SDS011;36921;49.006;9.292;2023-05-16T01:21:15;16.63;;;8.02;;
50932;SDS011;36921;49.006;9.292;2023-05-16T01:23:57;14.43;;;8.82;;
50932;SDS011;36921;49.006;9.292;2023-05-16T01:26:27;13.30;;;8.60;;
50932;SDS011;36921;49.006;9.292;2023-05-16T01:28:54;15.95;;;9.25;;
50932;SDS011;36921;49.006;9.292;2023-05-16T01:31:20;13.48;;;8.15;;
50932;SDS011;36921;49.006;9.292;2023-05-16T01:33:46;11.95;;;8.10;;
50932;SDS011;36921;49.006;9.292;2023-05-16T01:36:25;13.13;;;7.65;;
50932;SDS011;36921;49.006;9.292;2023-05-16T01:44:39;12.05;;;7.80;;
50932;SDS011;36921;49.006;9.292;2023-05-16T01:47:11;12.27;;;8.00;;
50932;SDS011;36921;49.006;9.292;2023-05-16T01:49:39;11.00;;;7.30;;
50932;SDS011;36921;49.006;9.292;2023-05-16T01:52:12;11.45;;;7.15;;
50932;SDS011;36921;49.006;9.292;2023-05-16T01:54:44;13.43;;;7.45;;
50932;SDS011;36921;49.006;9.292;2023-05-16T01:57:11;12.57;;;8.32;;
50932;SDS011;36921;49.006;9.292;2023-05-16T01:59:37;12.93;;;8.10;;
50932;SDS011;36921;49.006;9.292;2023-05-16T02:02:04;15.25;;;9.00;;
50932;SDS011;36921;49.006;9.292;2023-05-16T02:04:30;14.43;;;7.68;;
50932;SDS011;36921;49.006;9.292;2023-05-16T02:06:55;12.57;;;7.70;;
50932;SDS011;36921;49.006;9.292;2023-05-16T02:09:21;10.93;;;7.13;;
50932;SDS011;36921;49.006;9.292;2023-05-16T02:11:46;14.48;;;7.53;;
50932;SDS011;36921;49.006;9.292;2023-05-16T02:14:11;13.07;;;7.75;;
50932;SDS011;36921;49.006;9.292;2023-05-16T02:16:37;11.80;;;8.23;;
50932;SDS011;36921;49.006;9.292;2023-05-16T02:19:02;15.48;;;7.85;;
50932;SDS011;36921;49.006;9.292;2023-05-16T02:21:28;16.70;;;8.20;;
50932;SDS011;36921;49.006;9.292;2023-05-16T02:23:53;14.07;;;8.88;;
50932;SDS011;36921;49.006;9.292;2023-05-16T02:26:18;16.15;;;9.13;;
50932;SDS011;36921;49.006;9.292;2023-05-16T02:28:44;17.55;;;9.18;;
50932;SDS011;36921;49.006;9.292;2023-05-16T02:31:09;17.17;;;8.88;;
50932;SDS011;36921;49.006;9.292;2023-05-16T02:33:35;12.07;;;8.35;;
50932;SDS011;36921;49.006;9.292;2023-05-16T02:36:00;14.93;;;9.00;;
50932;SDS011;36921;49.006;9.292;2023-05-16T02:38:26;14.43;;;8.27;;
50932;SDS011;36921;49.006;9.292;2023-05-16T02:40:51;12.40;;;8.07;;
50932;SDS011;36921;49.006;9.292;2023-05-16T02:43:16;10.65;;;7.40;;
50932;SDS011;36921;49.006;9.292;2023-05-16T02:45:42;11.10;;;6.65;;
50932;SDS011;36921;49.006;9.292;2023-05-16T02:48:08;11.10;;;7.30;;
50932;SDS011;36921;49.006;9.292;2023-05-16T02:50:33;11.55;;;7.95;;
50932;SDS011;36921;49.006;9.292;2023-05-16T02:52:59;12.02;;;7.63;;
50932;SDS011;36921;49.006;9.292;2023-05-16T02:55:26;12.15;;;7.70;;
50932;SDS011;36921;49.006;9.292;2023-05-16T02:57:52;11.73;;;7.95;;
50932;SDS011;36921;49.006;9.292;2023-05-16T03:00:17;15.45;;;8.52;;
50932;SDS011;36921;49.006;9.292;2023-05-16T03:02:43;11.95;;;8.15;;
50932;SDS011;36921;49.006;9.292;2023-05-16T03:05:09;12.70;;;8.43;;
50932;SDS011;36921;49.006;9.292;2023-05-16T03:07:36;13.77;;;8.38;;
50932;SDS011;36921;49.006;9.292;2023-05-16T03:10:01;19.98;;;9.02;;
50932;SDS011;36921;49.006;9.292;2023-05-16T03:12:27;14.18;;;8.35;;
50932;SDS011;36921;49.006;9.292;2023-05-16T03:14:52;13.00;;;8.52;;
50932;SDS011;36921;49.006;9.292;2023-05-16T03:17:18;11.43;;;8.27;;
50932;SDS011;36921;49.006;9.292;2023-05-16T03:19:43;13.43;;;8.63;;
50932;SDS011;36921;49.006;9.292;2023-05-16T03:22:09;13.95;;;8.80;;
50932;SDS011;36921;49.006;9.292;2023-05-16T03:24:34;15.05;;;9.25;;
50932;SDS011;36921;49.006;9.292;2023-05-16T03:26:59;13.25;;;8.80;;
50932;SDS011;36921;49.006;9.292;2023-05-16T03:29:25;15.02;;;8.68;;
50932;SDS011;36921;49.006;9.292;2023-05-16T03:31:51;20.23;;;8.63;;
50932;SDS011;36921;49.006;9.292;2023-05-16T03:34:16;19.58;;;9.40;;
50932;SDS011;36921;49.006;9.292;2023-05-16T03:36:42;12.68;;;8.48;;
50932;SDS011;36921;49.006;9.292;2023-05-16T03:39:07;14.55;;;8.23;;
50932;SDS011;36921;49.006;9.292;2023-05-16T03:41:33;11.25;;;7.65;;
50932;SDS011;36921;49.006;9.292;2023-05-16T03:43:59;14.60;;;8.52;;
50932;SDS011;36921;49.006;9.292;2023-05-16T03:46:24;11.27;;;7.88;;
50932;SDS011;36921;49.006;9.292;2023-05-16T03:48:50;12.25;;;8.27;;
50932;SDS011;36921;49.006;9.292;2023-05-16T03:51:16;14.43;;;8.30;;
50932;SDS011;36921;49.006;9.292;2023-05-16T03:53:41;10.88;;;7.90;;
50932;SDS011;36921;49.006;9.292;2023-05-16T03:56:07;10.35;;;7.60;;
50932;SDS011;36921;49.006;9.292;2023-05-16T03:58:32;10.13;;;6.75;;
50932;SDS011;36921;49.006;9.292;2023-05-16T04:00:58;12.57;;;8.18;;
50932;SDS011;36921;49.006;9.292;2023-05-16T04:03:23;11.48;;;7.15;;
50932;SDS011;36921;49.006;9.292;2023-05-16T04:05:52;11.65;;;7.57;;
50932;SDS011;36921;49.006;9.292;2023-05-16T04:08:19;13.82;;;8.02;;
50932;SDS011;36921;49.006;9.292;2023-05-16T04:10:45;13.30;;;8.60;;
50932;SDS011;36921;49.006;9.292;2023-05-16T04:13:10;16.55;;;9.55;;
50932;SDS011;36921;49.006;9.292;2023-05-16T04:15:35;14.38;;;8.90;;
50932;SDS011;36921;49.006;9.292;2023-05-16T04:18:01;15.32;;;9.48;;
50932;SDS011;36921;49.006;9.292;2023-05-16T04:20:26;14.02;;;8.77;;
50932;SDS011;36921;49.006;9.292;2023-05-16T04:22:52;20.35;;;8.73;;
50932;SDS011;36921;49.006;9.292;2023-05-16T04:25:17;15.20;;;9.43;;
50932;SDS011;36921;49.006;9.292;2023-05-16T04:27:43;16.23;;;9.45;;
50932;SDS011;36921;49.006;9.292;2023-05-16T04:30:08;16.73;;;9.13;;
50932;SDS011;36921;49.006;9.292;2023-05-16T04:32:35;15.80;;;9.52;;
50932;SDS011;36921;49.006;9.292;2023-05-16T04:35:01;15.38;;;9.38;;
50932;SDS011;36921;49.006;9.292;2023-05-16T04:37:27;17.50;;;10.23;;
50932;SDS011;36921;49.006;9.292;2023-05-16T04:39:52;15.63;;;9.32;;
50932;SDS011;36921;49.006;9.292;2023-05-16T04:42:19;20.40;;;10.57;;
50932;SDS011;36921;49.006;9.292;2023-05-16T04:44:45;18.60;;;9.98;;
50932;SDS011;36921;49.006;9.292;2023-05-16T04:47:12;15.82;;;9.88;;
50932;SDS011;36921;49.006;9.292;2023-05-16T04:49:37;17.27;;;11.05;;
50932;SDS011;36921;49.006;9.292;2023-05-16T04:52:03;21.23;;;10.65;;
50932;SDS011;36921;49.006;9.292;2023-05-16T04:54:30;14.80;;;9.70;;
50932;SDS011;36921;49.006;9.292;2023-05-16T04:56:55;16.42;;;9.65;;
50932;SDS011;36921;49.006;9.292;2023-05-16T04:59:21;16.92;;;9.27;;
50932;SDS011;36921;49.006;9.292;2023-05-16T05:01:47;21.33;;;10.20;;
50932;SDS011;36921;49.006;9.292;2023-05-16T05:04:12;22.80;;;11.43;;
50932;SDS011;36921;49.006;9.292;2023-05-16T05:06:38;18.08;;;10.55;;
50932;SDS011;36921;49.006;9.292;2023-05-16T05:09:03;17.08;;;10.45;;
50932;SDS011;36921;49.006;9.292;2023-05-16T05:11:30;18.17;;;11.38;;
50932;SDS011;36921;49.006;9.292;2023-05-16T05:13:56;18.13;;;10.27;;
50932;SDS011;36921;49.006;9.292;2023-05-16T05:16:22;19.10;;;10.82;;
50932;SDS011;36921;49.006;9.292;2023-05-16T05:18:47;18.67;;;11.63;;
50932;SDS011;36921;49.006;9.292;2023-05-16T05:21:13;19.23;;;11.77;;
50932;SDS011;36921;49.006;9.292;2023-05-16T05:23:38;21.60;;;13.00;;
50932;SDS011;36921;49.006;9.292;2023-05-16T05:26:04;26.30;;;12.20;;
50932;SDS011;36921;49.006;9.292;2023-05-16T05:28:30;21.77;;;12.38;;
50932;SDS011;36921;49.006;9.292;2023-05-16T05:30:55;19.00;;;11.57;;
50932;SDS011;36921;49.006;9.292;2023-05-16T05:33:24;18.02;;;11.18;;
50932;SDS011;36921;49.006;9.292;2023-05-16T05:35:51;16.42;;;10.38;;
50932;SDS011;36921;49.006;9.292;2023-05-16T05:38:18;16.10;;;9.50;;
50932;SDS011;36921;49.006;9.292;2023-05-16T05:40:44;15.82;;;9.85;;
50932;SDS011;36921;49.006;9.292;2023-05-16T05:43:09;20.60;;;10.25;;
50932;SDS011;36921;49.006;9.292;2023-05-16T05:45:35;15.93;;;9.95;;
50932;SDS011;36921;49.006;9.292;2023-05-16T05:48:01;14.93;;;10.43;;
50932;SDS011;36921;49.006;9.292;2023-05-16T05:50:29;22.58;;;13.70;;
50932;SDS011;36921;49.006;9.292;2023-05-16T05:52:54;22.33;;;13.38;;
50932;SDS011;36921;49.006;9.292;2023-05-16T05:55:20;22.40;;;14.23;;
50932;SDS011;36921;49.006;9.292;2023-05-16T05:57:46;20.10;;;13.02;;
50932;SDS011;36921;49.006;9.292;2023-05-16T06:00:11;23.35;;;13.73;;
50932;SDS011;36921;49.006;9.292;2023-05-16T06:02:37;23.55;;;13.90;;
50932;SDS011;36921;49.006;9.292;2023-05-16T06:05:03;23.17;;;14.55;;
50932;SDS011;36921;49.006;9.292;2023-05-16T06:07:28;19.35;;;13.07;;
50932;SDS011;36921;49.006;9.292;2023-05-16T06:09:54;20.95;;;13.18;;
50932;SDS011;36921;49.006;9.292;2023-05-16T06:12:19;18.10;;;12.30;;
50932;SDS011;36921;49.006;9.292;2023-05-16T06:14:45;19.88;;;12.60;;
50932;SDS011;36921;49.006;9.292;2023-05-16T06:17:10;21.08;;;13.13;;
50932;SDS011;36921;49.006;9.292;2023-05-16T06:19:35;18.40;;;12.57;;
50932;SDS011;36921;49.006;9.292;2023-05-16T06:22:01;19.00;;;11.90;;
50932;SDS011;36921;49.006;9.292;2023-05-16T06:24:26;20.23;;;12.27;;
50932;SDS011;36921;49.006;9.292;2023-05-16T06:26:54;17.42;;;11.55;;
50932;SDS011;36921;49.006;9.292;2023-05-16T06:29:19;19.02;;;11.95;;
50932;SDS011;36921;49.006;9.292;2023-05-16T06:31:45;20.70;;;12.43;;
50932;SDS011;36921;49.006;9.292;2023-05-16T06:34:11;16.27;;;11.23;;
50932;SDS011;36921;49.006;9.292;2023-05-16T06:36:37;18.67;;;11.85;;
50932;SDS011;36921;49.006;9.292;2023-05-16T06:39:02;18.88;;;11.13;;
50932;SDS011;36921;49.006;9.292;2023-05-16T06:41:28;20.70;;;11.68;;
50932;SDS011;36921;49.006;9.292;2023-05-16T06:43:55;18.55;;;11.63;;
50932;SDS011;36921;49.006;9.292;2023-05-16T06:46:21;21.15;;;12.50;;
50932;SDS011;36921;49.006;9.292;2023-05-16T06:48:46;16.00;;;10.88;;
50932;SDS011;36921;49.006;9.292;2023-05-16T06:51:12;19.73;;;11.52;;
50932;SDS011;36921;49.006;9.292;2023-05-16T06:53:37;19.00;;;11.60;;
50932;SDS011;36921;49.006;9.292;2023-05-16T06:56:03;16.50;;;10.70;;
50932;SDS011;36921;49.006;9.292;2023-05-16T06:58:28;16.52;;;11.27;;
50932;SDS011;36921;49.006;9.292;2023-05-16T07:00:54;16.70;;;10.57;;
50932;SDS011;36921;49.006;9.292;2023-05-16T07:03:19;20.90;;;11.18;;
50932;SDS011;36921;49.006;9.292;2023-05-16T07:05:45;16.85;;;10.07;;
50932;SDS011;36921;49.006;9.292;2023-05-16T07:08:10;15.50;;;9.77;;
50932;SDS011;36921;49.006;9.292;2023-05-16T07:10:36;17.08;;;9.68;;
50932;SDS011;36921;49.006;9.292;2023-05-16T07:13:05;12.30;;;8.80;;
50932;SDS011;36921;49.006;9.292;2023-05-16T07:15:31;14.43;;;9.50;;
50932;SDS011;36921;49.006;9.292;2023-05-16T07:17:56;13.63;;;8.73;;
50932;SDS011;36921;49.006;9.292;2023-05-16T07:20:21;13.85;;;9.32;;
50932;SDS011;36921;49.006;9.292;2023-05-16T07:22:47;11.27;;;7.60;;
50932;SDS011;36921;49.006;9.292;2023-05-16T07:25:12;16.33;;;8.77;;
50932;SDS011;36921;49.006;9.292;2023-05-16T07:27:40;11.32;;;7.82;;
50932;SDS011;36921;49.006;9.292;2023-05-16T07:30:09;11.05;;;7.88;;
50932;SDS011;36921;49.006;9.292;2023-05-16T07:32:36;9.80;;;7.50;;
50932;SDS011;36921;49.006;9.292;2023-05-16T07:35:02;11.60;;;7.72;;
50932;SDS011;36921;49.006;9.292;2023-05-16T07:37:28;14.93;;;8.30;;
50932;SDS011;36921;49.006;9.292;2023-05-16T07:39:54;10.02;;;7.93;;
50932;SDS011;36921;49.006;9.292;2023-05-16T07:42:19;12.10;;;8.27;;
50932;SDS011;36921;49.006;9.292;2023-05-16T07:44:45;11.63;;;7.80;;
50932;SDS011;36921;49.006;9.292;2023-05-16T07:47:11;13.57;;;8.55;;
50932;SDS011;36921;49.006;9.292;2023-05-16T07:49:36;14.45;;;8.45;;
50932;SDS011;36921;49.006;9.292;2023-05-16T07:52:02;12.43;;;8.75;;
50932;SDS011;36921;49.006;9.292;2023-05-16T07:54:27;12.10;;;8.13;;
50932;SDS011;36921;49.006;9.292;2023-05-16T07:56:53;12.55;;;8.82;;
50932;SDS011;36921;49.006;9.292;2023-05-16T07:59:18;12.90;;;9.00;;
50932;SDS011;36921;49.006;9.292;2023-05-16T08:01:44;12.20;;;7.35;;
50932;SDS011;36921;49.006;9.292;2023-05-16T08:04:10;12.95;;;8.70;;
50932;SDS011;36921;49.006;9.292;2023-05-16T08:06:35;13.32;;;9.18;;
50932;SDS011;36921;49.006;9.292;2023-05-16T08:09:01;11.73;;;7.85;;
50932;SDS011;36921;49.006;9.292;2023-05-16T08:11:26;14.05;;;9.13;;
50932;SDS011;36921;49.006;9.292;2023-05-16T08:13:52;14.73;;;8.73;;
50932;SDS011;36921;49.006;9.292;2023-05-16T08:16:17;12.95;;;9.02;;
50932;SDS011;36921;49.006;9.292;2023-05-16T08:18:43;12.30;;;9.32;;
50932;SDS011;36921;49.006;9.292;2023-05-16T08:21:08;16.92;;;10.10;;
50932;SDS011;36921;49.006;9.292;2023-05-16T08:23:34;15.45;;;10.25;;
50932;SDS011;36921;49.006;9.292;2023-05-16T08:26:00;17.30;;;9.98;;
50932;SDS011;36921;49.006;9.292;2023-05-16T08:28:26;14.70;;;10.80;;
50932;SDS011;36921;49.006;9.292;2023-05-16T08:30:52;15.52;;;10.65;;
50932;SDS011;36921;49.006;9.292;2023-05-16T08:33:18;16.58;;;10.82;;
50932;SDS011;36921;49.006;9.292;2023-05-16T08:35:43;15.80;;;11.25;;
50932;SDS011;36921;49.006;9.292;2023-05-16T08:38:09;16.83;;;11.55;;
50932;SDS011;36921;49.006;9.292;2023-05-16T08:40:35;17.55;;;12.27;;
50932;SDS011;36921;49.006;9.292;2023-05-16T08:43:00;17.48;;;11.48;;
50932;SDS011;36921;49.006;9.292;2023-05-16T08:45:26;23.25;;;13.05;;
50932;SDS011;36921;49.006;9.292;2023-05-16T08:47:55;19.35;;;13.40;;
50932;SDS011;36921;49.006;9.292;2023-05-16T08:50:22;19.35;;;12.60;;
50932;SDS011;36921;49.006;9.292;2023-05-16T08:52:50;19.75;;;12.57;;
50932;SDS011;36921;49.006;9.292;2023-05-16T08:55:18;19.05;;;13.20;;
50932;SDS011;36921;49.006;9.292;2023-05-16T08:57:44;21.75;;;13.23;;
50932;SDS011;36921;49.006;9.292;2023-05-16T09:00:13;22.70;;;13.07;;
50932;SDS011;36921;49.006;9.292;2023-05-16T09:02:40;22.27;;;13.60;;
50932;SDS011;36921;49.006;9.292;2023-05-16T09:05:11;23.23;;;13.52;;
50932;SDS011;36921;49.006;9.292;2023-05-16T09:07:37;24.25;;;13.70;;
50932;SDS011;36921;49.006;9.292;2023-05-16T09:10:07;20.95;;;12.55;;
50932;SDS011;36921;49.006;9.292;2023-05-16T09:12:33;21.00;;;13.20;;
50932;SDS011;36921;49.006;9.292;2023-05-16T09:15:01;22.02;;;13.82;;
50932;SDS011;36921;49.006;9.292;2023-05-16T09:17:34;22.73;;;13.15;;
50932;SDS011;36921;49.006;9.292;2023-05-16T09:20:11;23.77;;;13.98;;
50932;SDS011;36921;49.006;9.292;2023-05-16T09:22:38;22.15;;;14.43;;
50932;SDS011;36921;49.006;9.292;2023-05-16T09:25:05;25.13;;;13.77;;
50932;SDS011;36921;49.006;9.292;2023-05-16T09:27:32;21.20;;;13.63;;
50932;SDS011;36921;49.006;9.292;2023-05-16T09:29:57;21.08;;;13.85;;
50932;SDS011;36921;49.006;9.292;2023-05-16T09:32:23;25.40;;;13.93;;
50932;SDS011;36921;49.006;9.292;2023-05-16T09:34:51;27.38;;;13.82;;
50932;SDS011;36921;49.006;9.292;2023-05-16T09:37:18;22.58;;;13.73;;
50932;SDS011;36921;49.006;9.292;2023-05-16T09:39:48;21.15;;;13.35;;
50932;SDS011;36921;49.006;9.292;2023-05-16T09:42:15;22.40;;;13.93;;
50932;SDS011;36921;49.006;9.292;2023-05-16T09:44:48;21.13;;;13.40;;
50932;SDS011;36921;49.006;9.292;2023-05-16T09:47:18;23.50;;;13.95;;
50932;SDS011;36921;49.006;9.292;2023-05-16T09:49:45;24.45;;;12.85;;
50932;SDS011;36921;49.006;9.292;2023-05-16T09:52:12;22.27;;;13.18;;
50932;SDS011;36921;49.006;9.292;2023-05-16T09:54:38;22.25;;;13.90;;
50932;SDS011;36921;49.006;9.292;2023-05-16T09:57:04;24.77;;;13.05;;
50932;SDS011;36921;49.006;9.292;2023-05-16T09:59:30;21.38;;;13.45;;
50932;SDS011;36921;49.006;9.292;2023-05-16T10:02:00;23.08;;;12.88;;
50932;SDS011;36921;49.006;9.292;2023-05-16T10:04:27;21.17;;;13.38;;
50932;SDS011;36921;49.006;9.292;2023-05-16T10:06:55;17.52;;;11.88;;
50932;SDS011;36921;49.006;9.292;2023-05-16T10:09:21;23.95;;;13.38;;
50932;SDS011;36921;49.006;9.292;2023-05-16T10:11:48;18.98;;;11.65;;
50932;SDS011;36921;49.006;9.292;2023-05-16T10:14:16;24.02;;;12.50;;
50932;SDS011;36921;49.006;9.292;2023-05-16T10:16:43;22.52;;;11.95;;
50932;SDS011;36921;49.006;9.292;2023-05-16T10:19:11;19.35;;;12.25;;
50932;SDS011;36921;49.006;9.292;2023-05-16T10:21:38;19.58;;;11.57;;
50932;SDS011;36921;49.006;9.292;2023-05-16T10:24:07;19.00;;;11.40;;
50932;SDS011;36921;49.006;9.292;2023-05-16T10:26:35;18.50;;;11.73;;
50932;SDS011;36921;49.006;9.292;2023-05-16T10:29:01;16.73;;;10.95;;
50932;SDS011;36921;49.006;9.292;2023-05-16T10:31:27;18.05;;;11.15;;
50932;SDS011;36921;49.006;9.292;2023-05-16T10:33:54;18.55;;;11.40;;
50932;SDS011;36921;49.006;9.292;2023-05-16T10:36:21;20.25;;;11.57;;
50932;SDS011;36921;49.006;9.292;2023-05-16T10:38:47;16.92;;;10.30;;
50932;SDS011;36921;49.006;9.292;2023-05-16T10:41:14;17.35;;;10.57;;
50932;SDS011;36921;49.006;9.292;2023-05-16T10:43:43;16.67;;;9.82;;
50932;SDS011;36921;49.006;9.292;2023-05-16T10:46:10;17.73;;;10.02;;
50932;SDS011;36921;49.006;9.292;2023-05-16T10:48:37;15.68;;;9.02;;
50932;SDS011;36921;49.006;9.292;2023-05-16T10:53:50;15.95;;;10.00;;
50932;SDS011;36921;49.006;9.292;2023-05-16T10:56:23;15.85;;;9.25;;
50932;SDS011;36921;49.006;9.292;2023-05-16T10:58:49;14.13;;;8.30;;
50932;SDS011;36921;49.006;9.292;2023-05-16T11:06:29;13.20;;;7.15;;
50932;SDS011;36921;49.006;9.292;2023-05-16T11:11:39;10.73;;;6.40;;
50932;SDS011;36921;49.006;9.292;2023-05-16T11:14:26;9.63;;;6.07;;
50932;SDS011;36921;49.006;9.292;2023-05-16T11:17:05;10.50;;;5.95;;
50932;SDS011;36921;49.006;9.292;2023-05-16T11:19:41;11.30;;;6.13;;
50932;SDS011;36921;49.006;9.292;2023-05-16T11:22:07;8.95;;;5.50;;
50932;SDS011;36921;49.006;9.292;2023-05-16T11:24:47;7.72;;;4.78;;
50932;SDS011;36921;49.006;9.292;2023-05-16T11:27:13;7.80;;;4.47;;
50932;SDS011;36921;49.006;9.292;2023-05-16T11:29:47;7.38;;;4.47;;
50932;SDS011;36921;49.006;9.292;2023-05-16T11:32:13;8.63;;;4.60;;
50932;SDS011;36921;49.006;9.292;2023-05-16T11:34:42;10.73;;;4.45;;
50932;SDS011;36921;49.006;9.292;2023-05-16T11:37:09;5.45;;;3.70;;
50932;SDS011;36921;49.006;9.292;2023-05-16T11:39:36;6.85;;;3.60;;
50932;SDS011;36921;49.006;9.292;2023-05-16T11:42:01;6.90;;;3.90;;
50932;SDS011;36921;49.006;9.292;2023-05-16T11:44:27;5.90;;;3.63;;
50932;SDS011;36921;49.006;9.292;2023-05-16T11:46:52;7.55;;;3.95;;
50932;SDS011;36921;49.006;9.292;2023-05-16T11:49:18;5.03;;;3.55;;
50932;SDS011;36921;49.006;9.292;2023-05-16T11:51:43;6.07;;;3.75;;
50932;SDS011;36921;49.006;9.292;2023-05-16T11:54:09;6.40;;;3.70;;
50932;SDS011;36921;49.006;9.292;2023-05-16T11:56:36;6.70;;;3.70;;
50932;SDS011;36921;49.006;9.292;2023-05-16T11:59:03;6.07;;;3.90;;
50932;SDS011;36921;49.006;9.292;2023-05-16T12:01:36;6.38;;;3.63;;
50932;SDS011;36921;49.006;9.292;2023-05-16T12:04:11;5.85;;;3.65;;
50932;SDS011;36921;49.006;9.292;2023-05-16T12:06:37;6.63;;;3.70;;
50932;SDS011;36921;49.006;9.292;2023-05-16T12:09:04;5.78;;;3.85;;
50932;SDS011;36921;49.006;9.292;2023-05-16T12:11:41;6.70;;;4.13;;
50932;SDS011;36921;49.006;9.292;2023-05-16T12:14:09;7.53;;;3.70;;
50932;SDS011;36921;49.006;9.292;2023-05-16T12:16:36;6.40;;;3.70;;
50932;SDS011;36921;49.006;9.292;2023-05-16T12:19:03;5.03;;;3.42;;
50932;SDS011;36921;49.006;9.292;2023-05-16T12:21:32;6.50;;;3.28;;
50932;SDS011;36921;49.006;9.292;2023-05-16T12:23:58;5.70;;;3.10;;
50932;SDS011;36921;49.006;9.292;2023-05-16T12:26:26;4.68;;;2.63;;
50932;SDS011;36921;49.006;9.292;2023-05-16T12:29:03;4.93;;;3.00;;
50932;SDS011;36921;49.006;9.292;2023-05-16T12:31:29;5.25;;;2.72;;
50932;SDS011;36921;49.006;9.292;2023-05-16T12:33:59;7.20;;;2.88;;
50932;SDS011;36921;49.006;9.292;2023-05-16T12:36:25;4.15;;;2.60;;
50932;SDS011;36921;49.006;9.292;2023-05-16T12:38:51;2.75;;;2.15;;
50932;SDS011;36921;49.006;9.292;2023-05-16T12:41:17;3.88;;;2.35;;
50932;SDS011;36921;49.006;9.292;2023-05-16T12:43:44;3.60;;;2.42;;
50932;SDS011;36921;49.006;9.292;2023-05-16T12:46:09;3.45;;;2.22;;
50932;SDS011;36921;49.006;9.292;2023-05-16T12:48:36;3.22;;;1.85;;
50932;SDS011;36921;49.006;9.292;2023-05-16T12:51:12;3.67;;;2.20;;
50932;SDS011;36921;49.006;9.292;2023-05-16T12:53:44;2.47;;;1.85;;
50932;SDS011;36921;49.006;9.292;2023-05-16T12:56:11;5.75;;;1.95;;
50932;SDS011;36921;49.006;9.292;2023-05-16T12:58:38;3.08;;;1.90;;
50932;SDS011;36921;49.006;9.292;2023-05-16T13:01:04;2.15;;;1.77;;
50932;SDS011;36921;49.006;9.292;2023-05-16T13:03:30;3.17;;;1.60;;
50932;SDS011;36921;49.006;9.292;2023-05-16T13:05:55;4.35;;;1.80;;
50932;SDS011;36921;49.006;9.292;2023-05-16T13:08:20;1.83;;;1.48;;
50932;SDS011;36921;49.006;9.292;2023-05-16T13:10:46;2.08;;;1.58;;
50932;SDS011;36921;49.006;9.292;2023-05-16T13:13:11;4.13;;;1.52;;
50932;SDS011;36921;49.006;9.292;2023-05-16T13:15:37;2.17;;;1.45;;
50932;SDS011;36921;49.006;9.292;2023-05-16T13:18:03;6.78;;;1.65;;
50932;SDS011;36921;49.006;9.292;2023-05-16T13:20:28;3.17;;;1.70;;
50932;SDS011;36921;49.006;9.292;2023-05-16T13:22:54;4.55;;;1.60;;
50932;SDS011;36921;49.006;9.292;2023-05-16T13:25:20;2.40;;;1.70;;
50932;SDS011;36921;49.006;9.292;2023-05-16T13:27:45;3.30;;;1.60;;
50932;SDS011;36921;49.006;9.292;2023-05-16T13:30:13;4.97;;;1.63;;
50932;SDS011;36921;49.006;9.292;2023-05-16T13:32:39;3.20;;;1.92;;
50932;SDS011;36921;49.006;9.292;2023-05-16T13:35:04;2.40;;;1.60;;
50932;SDS011;36921;49.006;9.292;2023-05-16T13:37:30;1.85;;;1.33;;
50932;SDS011;36921;49.006;9.292;2023-05-16T13:39:55;2.15;;;1.38;;
50932;SDS011;36921;49.006;9.292;2023-05-16T13:42:21;3.08;;;1.48;;
50932;SDS011;36921;49.006;9.292;2023-05-16T13:44:46;3.55;;;1.80;;
50932;SDS011;36921;49.006;9.292;2023-05-16T13:47:11;2.92;;;1.50;;
50932;SDS011;36921;49.006;9.292;2023-05-16T13:49:37;4.53;;;1.67;;
50932;SDS011;36921;49.006;9.292;2023-05-16T13:52:03;2.20;;;1.33;;
50932;SDS011;36921;49.006;9.292;2023-05-16T13:54:28;3.15;;;1.25;;
50932;SDS011;36921;49.006;9.292;2023-05-16T13:56:54;2.25;;;1.15;;
50932;SDS011;36921;49.006;9.292;2023-05-16T13:59:19;2.85;;;1.40;;
50932;SDS011;36921;49.006;9.292;2023-05-16T14:01:44;2.13;;;1.30;;
50932;SDS011;36921;49.006;9.292;2023-05-16T14:04:10;2.22;;;1.20;;
50932;SDS011;36921;49.006;9.292;2023-05-16T14:06:35;1.80;;;1.00;;
50932;SDS011;36921;49.006;9.292;2023-05-16T14:09:01;3.75;;;1.17;;
50932;SDS011;36921;49.006;9.292;2023-05-16T14:11:27;1.83;;;1.20;;
50932;SDS011;36921;49.006;9.292;2023-05-16T14:13:52;2.13;;;1.05;;
50932;SDS011;36921;49.006;9.292;2023-05-16T14:16:18;1.88;;;1.10;;
50932;SDS011;36921;49.006;9.292;2023-05-16T14:18:44;2.17;;;1.30;;
50932;SDS011;36921;49.006;9.292;2023-05-16T14:21:09;1.15;;;1.00;;
50932;SDS011;36921;49.006;9.292;2023-05-16T14:23:34;1.92;;;1.00;;
50932;SDS011;36921;49.006;9.292;2023-05-16T14:26:00;3.15;;;0.88;;
50932;SDS011;36921;49.006;9.292;2023-05-16T14:28:26;5.15;;;1.17;;
50932;SDS011;36921;49.006;9.292;2023-05-16T14:30:52;2.78;;;1.02;;
50932;SDS011;36921;49.006;9.292;2023-05-16T14:33:18;2.25;;;1.10;;
50932;SDS011;36921;49.006;9.292;2023-05-16T14:35:43;1.02;;;0.80;;
50932;SDS011;36921;49.006;9.292;2023-05-16T14:38:09;3.85;;;1.17;;
50932;SDS011;36921;49.006;9.292;2023-05-16T14:40:34;2.17;;;0.95;;
50932;SDS011;36921;49.006;9.292;2023-05-16T14:42:59;4.68;;;1.00;;
50932;SDS011;36921;49.006;9.292;2023-05-16T14:45:27;4.65;;;1.40;;
50932;SDS011;36921;49.006;9.292;2023-05-16T14:47:53;2.63;;;0.90;;
50932;SDS011;36921;49.006;9.292;2023-05-16T14:50:18;2.25;;;1.30;;